Time;durP1;ratioP1;P1;durP2;ratioP2;P2;SDS_P1;SDS_P2;PMS_P1;PMS_P2;Temp;Humidity;BMP_temperature;BMP_pressure;BME280_temperature;BME280_humidity;BME280_pressure;Samples;Min_cycle;Max_cycle;Signal;HPM_P1;HPM_P2
2024/01/19 00:00:08;;;;;;;28.25;7.55;;;;;;;15.38;79.96;99435.53;5087996;28;20021;-83
2024/01/19 00:02:33;;;;;;;12.77;7.15;;;;;;;15.28;79.77;99430.38;5087693;28;20504;-82
2024/01/19 00:04:59;;;;;;;25.30;8.63;;;;;;;15.14;79.92;99388.69;5088057;28;20073;-82
2024/01/19 00:07:24;;;;;;;20.10;7.03;;;;;;;15.21;79.93;99402.34;5087751;28;20032;-83
2024/01/19 00:09:50;;;;;;;21.67;6.95;;;;;;;15.44;80.03;99424.78;5087740;28;20020;-83
2024/01/19 00:12:15;;;;;;;18.75;7.93;;;;;;;15.30;79.37;99405.81;5087804;28;20031;-83
2024/01/19 00:14:41;;;;;;;19.08;7.15;;;;;;;15.38;79.58;99419.28;5087560;28;20020;-82
2024/01/19 00:17:06;;;;;;;21.73;6.60;;;;;;;15.42;79.27;99424.13;5087722;28;20028;-83
2024/01/19 00:19:33;;;;;;;18.80;7.95;;;;;;;15.42;79.14;99410.59;5087711;28;20055;-82
2024/01/19 00:21:58;;;;;;;20.45;7.80;;;;;;;15.45;79.42;99412.09;5086289;28;20503;-83
2024/01/19 00:24:24;;;;;;;13.00;7.82;;;;;;;15.49;79.07;99421.56;5088469;28;20017;-83
2024/01/19 00:26:50;;;;;;;14.90;7.22;;;;;;;15.18;78.60;99371.06;5090980;28;20043;-82
2024/01/19 00:29:17;;;;;;;20.38;7.93;;;;;;;15.41;78.72;99410.78;5090957;28;20028;-83
2024/01/19 00:31:45;;;;;;;16.90;7.90;;;;;;;15.18;78.70;99362.09;5102301;28;20012;-83
2024/01/19 00:34:12;;;;;;;20.92;7.22;;;;;;;15.49;78.80;99416.16;5113237;28;20032;-83
2024/01/19 00:36:38;;;;;;;25.23;7.05;;;;;;;15.43;78.82;99412.28;5095388;28;20028;-83
2024/01/19 00:39:04;;;;;;;13.82;5.78;;;;;;;15.44;78.84;99413.13;5086737;28;20021;-83
2024/01/19 00:41:29;;;;;;;13.38;6.28;;;;;;;15.41;79.12;99418.91;5087841;28;20035;-83
2024/01/19 00:43:55;;;;;;;14.80;7.43;;;;;;;15.32;79.06;99392.94;5087239;28;20037;-83
2024/01/19 00:46:21;;;;;;;17.48;7.03;;;;;;;15.25;79.29;99393.69;5087254;28;20032;-83
2024/01/19 00:48:47;;;;;;;22.42;7.68;;;;;;;15.33;79.36;99411.69;5087315;28;20036;-82
2024/01/19 00:51:13;;;;;;;17.85;6.85;;;;;;;15.24;79.34;99394.69;5087400;28;20021;-83
2024/01/19 00:53:38;;;;;;;19.63;8.10;;;;;;;15.37;79.65;99425.72;5087458;28;20042;-82
2024/01/19 00:56:04;;;;;;;18.33;7.25;;;;;;;15.39;79.61;99431.78;5087361;28;20075;-82
2024/01/19 00:58:29;;;;;;;15.98;6.88;;;;;;;15.36;80.03;99426.75;5067857;28;20044;-83
2024/01/19 01:00:56;;;;;;;17.95;6.57;;;;;;;15.33;79.92;99421.69;5087494;28;20478;-82
2024/01/19 01:03:27;;;;;;;19.65;6.82;;;;;;;15.31;80.38;99423.75;5087295;28;20024;-83
2024/01/19 01:05:56;;;;;;;15.65;6.30;;;;;;;15.13;80.29;99405.13;5087215;28;20053;-82
2024/01/19 01:08:22;;;;;;;13.38;6.10;;;;;;;15.20;80.45;99417.75;5087730;28;20635;-82
2024/01/19 01:10:48;;;;;;;15.35;6.70;;;;;;;15.16;80.29;99411.03;5087623;28;20487;-83
2024/01/19 01:13:14;;;;;;;21.33;6.90;;;;;;;15.25;80.37;99431.59;5088148;28;20043;-83
2024/01/19 01:15:40;;;;;;;14.02;5.68;;;;;;;15.11;80.53;99408.03;5090116;28;20024;-83
2024/01/19 01:18:06;;;;;;;21.05;6.43;;;;;;;15.34;80.36;99436.94;5090411;28;20028;-82
2024/01/19 01:20:31;;;;;;;17.65;6.00;;;;;;;15.34;80.42;99440.50;5097699;28;20012;-83
2024/01/19 01:22:57;;;;;;;11.80;6.95;;;;;;;15.21;80.55;99410.47;5113811;28;20028;-83
2024/01/19 01:25:23;;;;;;;11.98;5.47;;;;;;;15.20;80.20;99417.75;5100913;28;20360;-82
2024/01/19 01:27:48;;;;;;;17.42;6.68;;;;;;;15.27;80.39;99432.25;5088276;28;20495;-83
2024/01/19 01:30:14;;;;;;;12.68;6.20;;;;;;;15.35;80.41;99438.63;5087407;28;20113;-83
2024/01/19 01:32:39;;;;;;;17.77;6.30;;;;;;;15.15;80.08;99403.94;5088667;28;20032;-82
2024/01/19 01:35:05;;;;;;;21.42;6.30;;;;;;;15.36;80.34;99435.72;5088871;28;20057;-83
2024/01/19 01:37:30;;;;;;;16.80;6.18;;;;;;;15.14;80.13;99402.22;5090583;28;20569;-83
2024/01/19 01:39:56;;;;;;;12.00;6.20;;;;;;;15.38;79.96;99441.78;5090365;28;20115;-83
2024/01/19 01:42:21;;;;;;;17.23;7.05;;;;;;;15.25;79.79;99420.75;5090533;28;20074;-81
2024/01/19 01:44:47;;;;;;;15.57;6.60;;;;;;;15.30;79.61;99416.63;5090562;28;20114;-84
2024/01/19 01:47:13;;;;;;;20.50;6.20;;;;;;;15.46;79.47;99440.88;5090309;28;20070;-81
2024/01/19 01:49:38;;;;;;;11.68;5.05;;;;;;;15.31;79.19;99410.22;5090559;28;20140;-83
2024/01/19 01:52:04;;;;;;;16.60;5.95;;;;;;;15.49;79.00;99429.69;5090282;28;20024;-82
2024/01/19 01:54:30;;;;;;;18.63;6.50;;;;;;;15.39;78.98;99419.09;5088872;28;20031;-83
2024/01/19 01:56:56;;;;;;;27.13;7.05;;;;;;;15.49;78.91;99438.66;5090506;28;20026;-83
2024/01/19 01:59:22;;;;;;;22.30;6.25;;;;;;;15.21;78.47;99370.69;5090775;28;20032;-82
2024/01/19 02:01:48;;;;;;;17.00;5.68;;;;;;;15.41;78.58;99408.09;5091091;28;20077;-82
2024/01/19 02:04:15;;;;;;;14.95;7.15;;;;;;;15.43;78.27;99423.13;5092211;28;20066;-82
2024/01/19 02:06:41;;;;;;;16.23;5.95;;;;;;;15.46;78.02;99427.31;5093537;28;20028;-83
2024/01/19 02:09:08;;;;;;;19.35;6.95;;;;;;;15.22;78.16;99388.63;5093190;28;20074;-82
2024/01/19 02:11:34;;;;;;;12.88;5.93;;;;;;;15.39;77.81;99420.94;5116326;28;20046;-83
2024/01/19 02:13:59;;;;;;;16.45;6.40;;;;;;;14.99;77.92;99363.44;5109034;28;20519;-83
2024/01/19 02:16:25;;;;;;;11.38;5.70;;;;;;;15.34;77.52;99417.97;5090562;28;20046;-83
2024/01/19 02:18:53;;;;;;;18.42;6.53;;;;;;;15.34;77.66;99428.81;5090351;28;20481;-83
2024/01/19 02:21:19;;;;;;;18.90;6.05;;;;;;;15.42;77.72;99447.69;5088569;28;20047;-83
2024/01/19 02:23:59;;;;;;;18.38;6.60;;;;;;;15.43;77.71;99454.78;5089630;28;20101;-82
2024/01/19 02:26:25;;;;;;;24.67;7.40;;;;;;;15.35;77.71;99442.16;5089589;28;20073;-82
2024/01/19 02:28:51;;;;;;;15.30;8.10;;;;;;;15.31;77.67;99450.84;5089848;28;20034;-81
2024/01/19 02:31:16;;;;;;;14.93;8.15;;;;;;;15.23;77.46;99433.63;5089351;28;20028;-83
2024/01/19 02:33:42;;;;;;;21.25;8.63;;;;;;;15.18;78.04;99446.91;5089304;28;20082;-82
2024/01/19 02:36:08;;;;;;;26.55;8.63;;;;;;;15.13;77.89;99446.59;5089073;28;20059;-82
2024/01/19 02:38:34;;;;;;;29.92;8.30;;;;;;;15.19;78.04;99464.00;5089414;28;20028;-81
2024/01/19 02:40:59;;;;;;;20.10;8.85;;;;;;;14.96;78.07;99426.09;5089228;28;20036;-82
2024/01/19 02:43:25;;;;;;;19.85;8.13;;;;;;;14.98;77.93;99439.47;5088872;28;20021;-83
2024/01/19 02:45:50;;;;;;;17.00;7.72;;;;;;;14.99;77.93;99450.09;5088871;28;20032;-82
2024/01/19 02:48:16;;;;;;;18.67;8.85;;;;;;;14.93;78.07;99440.00;5089620;28;20048;-82
2024/01/19 02:50:41;;;;;;;19.50;8.75;;;;;;;15.04;77.96;99450.41;5089836;28;20028;-82
2024/01/19 02:53:07;;;;;;;17.42;7.72;;;;;;;14.74;77.80;99408.00;5090454;28;20478;-82
2024/01/19 02:55:32;;;;;;;19.80;9.38;;;;;;;15.00;78.24;99448.22;5092509;28;20111;-81
2024/01/19 02:57:58;;;;;;;32.92;11.15;;;;;;;14.81;78.12;99422.50;5091132;28;20036;-82
2024/01/19 03:00:23;;;;;;;27.55;11.60;;;;;;;14.99;78.14;99460.94;5112097;28;20036;-82
2024/01/19 03:02:49;;;;;;;20.83;11.55;;;;;;;14.73;78.22;99430.69;5113338;28;20032;-83
2024/01/19 03:05:14;;;;;;;23.33;9.77;;;;;;;14.94;78.33;99471.47;5089496;28;20024;-82
2024/01/19 03:07:40;;;;;;;22.27;8.65;;;;;;;14.88;77.97;99447.81;5089110;28;20131;-82
2024/01/19 03:10:07;;;;;;;25.38;7.82;;;;;;;14.74;77.96;99426.13;5088842;28;20714;-82
2024/01/19 03:12:32;;;;;;;16.17;7.80;;;;;;;14.88;78.14;99455.94;5088671;28;20028;-83
2024/01/19 03:14:58;;;;;;;21.38;8.15;;;;;;;14.91;78.04;99465.56;5088784;28;20458;-81
2024/01/19 03:17:23;;;;;;;22.70;7.28;;;;;;;14.76;78.06;99451.97;5088748;28;20031;-80
2024/01/19 03:19:50;;;;;;;17.23;7.95;;;;;;;14.80;78.02;99458.69;5088743;28;20044;-82
2024/01/19 03:22:15;;;;;;;24.55;7.57;;;;;;;14.67;78.00;99442.22;5088710;28;20508;-83
2024/01/19 03:24:41;;;;;;;19.90;6.78;;;;;;;14.80;78.06;99474.94;5088252;28;20055;-82
2024/01/19 03:27:06;;;;;;;21.15;8.15;;;;;;;14.77;78.07;99485.31;5088922;28;20028;-81
2024/01/19 03:29:32;;;;;;;21.27;7.70;;;;;;;14.74;78.37;99475.66;5088512;28;20044;-83
2024/01/19 03:31:57;;;;;;;25.17;8.82;;;;;;;14.57;78.18;99455.16;5088429;28;20542;-82
2024/01/19 03:34:23;;;;;;;19.05;9.52;;;;;;;14.72;78.27;99469.59;5086854;28;20048;-81
2024/01/19 03:36:48;;;;;;;22.17;9.15;;;;;;;14.51;77.97;99448.59;5088338;28;20032;-82
2024/01/19 03:39:14;;;;;;;27.20;10.20;;;;;;;14.59;78.33;99472.03;5088530;28;20024;-82
2024/01/19 03:41:39;;;;;;;21.60;9.93;;;;;;;14.53;78.21;99459.22;5088950;28;20456;-81
2024/01/19 03:44:05;;;;;;;22.63;10.90;;;;;;;14.56;78.35;99477.78;5089181;28;20412;-81
2024/01/19 03:46:30;;;;;;;21.83;10.80;;;;;;;14.54;78.39;99479.84;5091108;28;20031;-81
2024/01/19 03:48:56;;;;;;;19.35;9.93;;;;;;;14.47;78.05;99454.53;5091414;28;20016;-82
2024/01/19 03:51:21;;;;;;;19.70;8.57;;;;;;;14.46;78.05;99467.19;5100765;28;20031;-81
2024/01/19 03:53:47;;;;;;;12.73;7.88;;;;;;;14.53;78.32;99467.34;5113547;28;20054;-82
2024/01/19 03:56:12;;;;;;;19.90;8.13;;;;;;;14.46;78.47;99469.09;5100564;28;20126;-81
2024/01/19 03:58:38;;;;;;;20.88;7.90;;;;;;;14.11;78.09;99425.28;5088682;28;20059;-81
2024/01/19 04:01:05;;;;;;;15.70;7.80;;;;;;;14.52;78.34;99492.72;5087112;28;20480;-82
2024/01/19 04:03:31;;;;;;;21.35;7.93;;;;;;;14.30;78.33;99471.84;5087971;28;20032;-81
2024/01/19 04:05:57;;;;;;;14.48;7.35;;;;;;;14.51;78.42;99507.25;5088100;28;20104;-82
2024/01/19 04:08:22;;;;;;;24.35;7.82;;;;;;;14.47;78.09;99500.50;5087969;28;20024;-83
2024/01/19 04:10:48;;;;;;;14.95;8.80;;;;;;;14.47;78.37;99501.34;5088213;28;20077;-82
2024/01/19 04:13:13;;;;;;;19.45;7.90;;;;;;;14.46;78.10;99504.25;5087918;28;20035;-83
2024/01/19 04:15:39;;;;;;;18.83;9.23;;;;;;;14.48;78.25;99513.03;5088074;28;20089;-82
2024/01/19 04:18:04;;;;;;;21.60;9.52;;;;;;;14.46;78.11;99515.06;5088077;28;20063;-82
2024/01/19 04:20:30;;;;;;;22.27;10.05;;;;;;;14.44;77.96;99517.09;5087850;28;20020;-82
2024/01/19 04:22:56;;;;;;;20.70;9.35;;;;;;;14.29;77.89;99483.66;5088454;28;20040;-82
2024/01/19 04:25:21;;;;;;;18.45;9.25;;;;;;;14.49;77.86;99522.84;5088416;28;20066;-82
2024/01/19 04:27:47;;;;;;;17.13;11.05;;;;;;;14.19;77.54;99476.59;5088568;28;20107;-83
2024/01/19 04:30:12;;;;;;;18.20;9.73;;;;;;;14.23;77.63;99482.50;5088313;28;20049;-82
2024/01/19 04:32:38;;;;;;;19.95;9.70;;;;;;;14.45;77.51;99524.19;5088428;28;20028;-83
2024/01/19 04:35:04;;;;;;;22.45;10.48;;;;;;;14.17;77.62;99484.06;5088569;28;20143;-82
2024/01/19 04:37:30;;;;;;;20.95;10.05;;;;;;;14.46;77.47;99531.31;5094971;28;20035;-83
2024/01/19 04:39:56;;;;;;;21.60;10.80;;;;;;;14.41;77.55;99523.72;5113630;28;20092;-82
2024/01/19 04:42:21;;;;;;;29.83;10.55;;;;;;;14.37;77.45;99521.53;5103889;28;20134;-81
2024/01/19 04:44:47;;;;;;;23.75;10.38;;;;;;;14.42;77.62;99529.97;5088180;28;20028;-83
2024/01/19 04:47:12;;;;;;;15.45;9.57;;;;;;;14.25;77.53;99501.28;5087981;28;20423;-81
2024/01/19 04:49:38;;;;;;;22.25;10.52;;;;;;;14.23;77.29;99498.75;5086178;28;20067;-83
2024/01/19 04:52:03;;;;;;;23.38;9.52;;;;;;;14.19;77.11;99497.41;5087541;28;20067;-83
2024/01/19 04:54:29;;;;;;;24.30;9.98;;;;;;;14.32;77.27;99513.06;5087648;28;20070;-82
2024/01/19 04:56:54;;;;;;;19.67;9.95;;;;;;;14.41;77.27;99541.78;5087228;28;20020;-82
2024/01/19 04:59:20;;;;;;;16.63;9.63;;;;;;;14.28;76.92;99526.09;5086287;28;20032;-82
2024/01/19 05:01:45;;;;;;;25.95;11.55;;;;;;;14.31;77.14;99516.81;5087140;28;20054;-82
2024/01/19 05:04:11;;;;;;;25.15;12.23;;;;;;;14.47;76.98;99546.50;5086917;28;20519;-81
2024/01/19 05:06:36;;;;;;;24.80;11.73;;;;;;;14.41;76.87;99542.66;5087101;28;20016;-82
2024/01/19 05:09:02;;;;;;;33.92;15.85;;;;;;;14.20;76.51;99504.50;5090992;28;20028;-82
2024/01/19 05:11:28;;;;;;;25.02;12.82;;;;;;;14.45;76.68;99546.69;5091354;28;20032;-82
2024/01/19 05:13:53;;;;;;;25.17;12.13;;;;;;;14.42;76.26;99543.50;5091518;28;20718;-83
2024/01/19 05:16:19;;;;;;;22.17;12.30;;;;;;;14.51;76.75;99562.22;5091381;28;20023;-83
2024/01/19 05:18:44;;;;;;;37.78;18.95;;;;;;;14.45;76.15;99556.66;5091367;28;20040;-82
2024/01/19 05:21:10;;;;;;;30.55;15.10;;;;;;;14.42;76.35;99546.19;5091469;28;20396;-83
2024/01/19 05:23:35;;;;;;;30.75;15.60;;;;;;;14.44;76.04;99550.41;5091994;28;20113;-82
2024/01/19 05:26:04;;;;;;;28.52;14.30;;;;;;;14.46;75.97;99558.38;5093253;28;20051;-83
2024/01/19 05:28:33;;;;;;;19.85;12.38;;;;;;;14.55;76.03;99589.78;5113713;28;20100;-83
2024/01/19 05:30:59;;;;;;;31.52;13.13;;;;;;;14.51;75.85;99591.13;5115709;28;20020;-83
2024/01/19 05:33:24;;;;;;;18.63;12.13;;;;;;;14.27;75.82;99565.00;5093493;28;20081;-81
2024/01/19 05:35:50;;;;;;;26.98;12.13;;;;;;;14.45;76.08;99587.28;5092922;28;20563;-83
2024/01/19 05:38:15;;;;;;;23.90;12.88;;;;;;;14.50;76.19;99593.00;5091151;28;20043;-82
2024/01/19 05:40:41;;;;;;;17.52;9.45;;;;;;;14.47;75.72;99595.19;5090625;28;20600;-83
2024/01/19 05:43:07;;;;;;;21.30;11.00;;;;;;;14.47;76.04;99598.75;5089316;28;20446;-82
2024/01/19 05:45:32;;;;;;;21.63;9.02;;;;;;;14.20;76.12;99555.88;5090632;28;20047;-82
2024/01/19 05:47:58;;;;;;;15.07;9.18;;;;;;;14.40;76.06;99588.81;5090249;28;20028;-82
2024/01/19 05:50:23;;;;;;;23.45;10.65;;;;;;;14.45;75.81;99602.66;5090189;28;20028;-83
2024/01/19 05:52:49;;;;;;;18.17;10.73;;;;;;;14.02;75.69;99530.94;5091217;28;20388;-81
2024/01/19 05:55:14;;;;;;;19.33;10.15;;;;;;;14.54;75.58;99615.13;5090379;28;20051;-81
2024/01/19 05:57:40;;;;;;;24.38;9.18;;;;;;;14.57;75.85;99614.78;5090124;28;20028;-82
2024/01/19 06:00:06;;;;;;;23.40;9.10;;;;;;;14.49;75.50;99593.19;5090957;28;20035;-81
2024/01/19 06:02:32;;;;;;;17.23;10.70;;;;;;;14.43;75.32;99589.28;5090108;28;20549;-82
2024/01/19 06:04:57;;;;;;;24.52;12.73;;;;;;;14.52;75.25;99600.94;5090626;28;20058;-81
2024/01/19 06:07:23;;;;;;;25.98;15.30;;;;;;;14.60;75.03;99622.56;5090771;28;20361;-82
2024/01/19 06:09:49;;;;;;;30.05;15.13;;;;;;;14.39;75.42;99592.53;5091446;28;20435;-81
2024/01/19 06:12:15;;;;;;;25.80;16.73;;;;;;;14.44;75.24;99593.69;5074417;28;20032;-81
2024/01/19 06:14:40;;;;;;;25.90;17.15;;;;;;;14.62;75.25;99623.22;5093292;28;20039;-82
2024/01/19 06:17:06;;;;;;;33.50;18.45;;;;;;;14.53;74.98;99617.00;5104274;28;20036;-82
2024/01/19 06:19:32;;;;;;;31.98;18.13;;;;;;;14.52;74.71;99617.19;5115417;28;20160;-82
2024/01/19 06:21:57;;;;;;;33.50;17.95;;;;;;;14.55;75.18;99623.09;5099228;28;20024;-82
2024/01/19 06:24:23;;;;;;;22.65;15.50;;;;;;;14.59;74.84;99631.69;5090452;28;20063;-81
2024/01/19 06:26:48;;;;;;;27.73;15.38;;;;;;;14.56;74.65;99623.91;5090231;28;20062;-80
2024/01/19 06:29:15;;;;;;;27.10;14.88;;;;;;;14.63;74.77;99638.44;5089855;28;20108;-81
2024/01/19 06:31:44;;;;;;;23.63;13.52;;;;;;;14.45;74.47;99613.47;5089754;28;20028;-81
2024/01/19 06:34:11;;;;;;;27.17;14.18;;;;;;;14.64;74.66;99642.84;5089561;28;20040;-82
2024/01/19 06:36:36;;;;;;;23.27;13.65;;;;;;;14.55;74.60;99623.09;5089831;28;20099;-81
2024/01/19 06:39:02;;;;;;;30.77;13.02;;;;;;;14.58;74.13;99633.56;5089678;28;20145;-81
2024/01/19 06:41:27;;;;;;;26.83;13.27;;;;;;;14.56;74.12;99629.31;5089717;28;20024;-82
2024/01/19 06:43:53;;;;;;;24.65;13.18;;;;;;;14.71;74.08;99649.22;5088402;28;20032;-82
2024/01/19 06:46:19;;;;;;;22.05;12.13;;;;;;;14.65;74.14;99661.59;5089538;28;20468;-81
2024/01/19 06:48:44;;;;;;;26.65;13.40;;;;;;;14.27;73.86;99591.19;5089832;28;20028;-82
2024/01/19 06:51:16;;;;;;;19.92;11.48;;;;;;;14.68;74.07;99660.41;5089787;28;20399;-82
2024/01/19 06:53:41;;;;;;;20.50;11.00;;;;;;;14.55;74.12;99638.47;5089503;28;20020;-81
2024/01/19 06:56:07;;;;;;;12.80;9.60;;;;;;;14.69;73.90;99656.69;5089817;28;20273;-82
2024/01/19 06:58:32;;;;;;;17.00;10.88;;;;;;;14.68;73.48;99649.56;5090089;28;20454;-81
2024/01/19 07:00:58;;;;;;;23.05;8.70;;;;;;;14.75;73.41;99655.97;5090991;28;20073;-82
2024/01/19 07:03:23;;;;;;;13.70;7.72;;;;;;;14.83;73.27;99658.66;5091971;28;20077;-82
2024/01/19 07:05:49;;;;;;;22.98;9.25;;;;;;;14.85;72.67;99662.03;5091354;28;20056;-82
2024/01/19 07:08:15;;;;;;;12.73;7.03;;;;;;;14.81;72.33;99639.03;5103494;28;20016;-81
2024/01/19 07:10:41;;;;;;;16.20;8.40;;;;;;;14.89;72.20;99652.53;5112840;28;20527;-81
2024/01/19 07:13:06;;;;;;;18.17;8.20;;;;;;;14.90;72.17;99648.81;5100613;28;20028;-82
2024/01/19 07:15:32;;;;;;;15.13;7.88;;;;;;;15.09;71.79;99661.94;5093474;28;20032;-81
2024/01/19 07:17:57;;;;;;;17.73;8.68;;;;;;;15.05;72.10;99649.75;5089149;28;20085;-83
2024/01/19 07:20:23;;;;;;;18.90;8.82;;;;;;;15.29;71.73;99656.88;5088747;28;20050;-80
2024/01/19 07:22:55;;;;;;;14.00;8.52;;;;;;;15.42;71.34;99662.56;5088997;28;20558;-82
2024/01/19 07:25:20;;;;;;;14.20;8.75;;;;;;;15.42;70.83;99637.34;5088397;28;20484;-82
2024/01/19 07:27:46;;;;;;;21.83;10.80;;;;;;;15.44;69.52;99630.72;5088796;28;20154;-84
2024/01/19 07:30:12;;;;;;;12.68;8.52;;;;;;;15.67;69.34;99637.03;5087947;28;20420;-81
2024/01/19 07:32:37;;;;;;;15.13;9.07;;;;;;;15.86;68.96;99651.09;5088584;28;20117;-82
2024/01/19 07:35:03;;;;;;;13.95;7.47;;;;;;;16.02;67.79;99657.25;5088681;28;20102;-82
2024/01/19 07:37:29;;;;;;;15.38;7.10;;;;;;;15.88;66.91;99616.50;5088652;28;20446;-81
2024/01/19 07:39:54;;;;;;;11.95;7.68;;;;;;;15.98;66.34;99622.53;5088585;28;20028;-83
2024/01/19 07:42:20;;;;;;;13.00;8.27;;;;;;;16.22;66.24;99662.97;5088347;28;20024;-82
2024/01/19 07:44:45;;;;;;;28.90;9.35;;;;;;;16.15;65.91;99641.16;5088774;28;20028;-81
2024/01/19 07:47:10;;;;;;;21.17;8.25;;;;;;;16.24;65.99;99645.47;5088783;28;20516;-82
2024/01/19 07:49:36;;;;;;;13.38;7.85;;;;;;;16.37;65.91;99660.28;5089705;28;20028;-82
2024/01/19 07:52:02;;;;;;;11.25;8.23;;;;;;;16.40;65.47;99659.91;5091664;28;20024;-81
2024/01/19 07:54:27;;;;;;;19.77;8.80;;;;;;;16.50;65.28;99660.50;5090993;28;20042;-81
2024/01/19 07:56:53;;;;;;;16.95;8.30;;;;;;;16.57;65.07;99666.91;5112079;28;20016;-82
2024/01/19 07:59:18;;;;;;;14.88;8.05;;;;;;;16.70;64.85;99677.94;5112788;28;20036;-83
2024/01/19 08:01:44;;;;;;;10.57;7.70;;;;;;;16.74;64.56;99660.25;5088758;28;20357;-81
2024/01/19 08:04:09;;;;;;;11.10;7.57;;;;;;;16.82;63.66;99690.00;5088725;28;20035;-82
2024/01/19 08:06:35;;;;;;;15.05;7.10;;;;;;;16.86;63.35;99675.03;5088127;28;20206;-82
2024/01/19 08:09:00;;;;;;;10.63;6.63;;;;;;;16.84;62.95;99679.81;5088155;28;20503;-81
2024/01/19 08:11:26;;;;;;;18.40;7.15;;;;;;;17.00;62.80;99679.59;5087934;28;20031;-82
2024/01/19 08:13:52;;;;;;;23.55;6.53;;;;;;;17.01;62.69;99673.16;5088381;28;20107;-81
2024/01/19 08:16:17;;;;;;;13.55;6.53;;;;;;;17.23;62.23;99690.34;5087917;28;20058;-82
2024/01/19 08:18:43;;;;;;;11.27;7.30;;;;;;;17.31;61.72;99693.78;5087911;28;20031;-81
2024/01/19 08:21:08;;;;;;;10.60;7.25;;;;;;;17.25;61.70;99696.44;5087960;28;20440;-81
2024/01/19 08:23:34;;;;;;;14.30;7.25;;;;;;;17.25;61.13;99675.53;5087800;28;20117;-82
2024/01/19 08:26:00;;;;;;;14.73;6.93;;;;;;;17.26;60.55;99679.94;5087717;28;20047;-83
2024/01/19 08:28:25;;;;;;;17.25;7.57;;;;;;;17.32;60.61;99690.06;5088284;28;20038;-81
2024/01/19 08:30:51;;;;;;;15.63;9.07;;;;;;;17.30;60.66;99681.25;5088055;28;20020;-81
2024/01/19 08:33:16;;;;;;;18.95;10.93;;;;;;;17.50;61.07;99708.66;5088366;28;20024;-80
2024/01/19 08:35:43;;;;;;;25.23;11.98;;;;;;;17.56;61.02;99709.78;5088494;28;20686;-83
2024/01/19 08:38:08;;;;;;;20.52;11.85;;;;;;;17.49;61.21;99685.22;5088620;28;20099;-83
2024/01/19 08:40:34;;;;;;;29.40;13.90;;;;;;;17.77;61.02;99699.78;5090790;28;20063;-83
2024/01/19 08:43:00;;;;;;;24.70;13.60;;;;;;;17.82;60.69;99719.09;5091089;28;20594;-81
2024/01/19 08:45:28;;;;;;;38.08;15.57;;;;;;;17.88;60.64;99703.88;5107180;28;20042;-81
2024/01/19 08:47:56;;;;;;;24.17;14.23;;;;;;;17.83;60.83;99676.41;5117553;28;20020;-82
2024/01/19 08:50:22;;;;;;;25.52;13.60;;;;;;;17.94;60.59;99673.19;5097828;28;20028;-81
2024/01/19 08:52:47;;;;;;;34.30;13.65;;;;;;;18.29;60.55;99706.75;5092220;28;20102;-81
2024/01/19 08:55:13;;;;;;;40.78;13.07;;;;;;;18.26;59.59;99693.53;5091795;28;20039;-80
2024/01/19 08:57:39;;;;;;;26.65;12.52;;;;;;;18.37;59.21;99693.00;5091558;28;20028;-81
2024/01/19 09:00:07;;;;;;;23.55;11.43;;;;;;;18.48;57.98;99704.19;5089179;28;20883;-82
2024/01/19 09:02:32;;;;;;;27.15;10.32;;;;;;;18.31;57.66;99658.41;5091407;28;20028;-83
2024/01/19 09:04:58;;;;;;;30.33;9.43;;;;;;;18.76;57.41;99703.38;5091400;28;20405;-81
2024/01/19 09:07:24;;;;;;;21.50;9.88;;;;;;;18.78;56.85;99679.47;5090196;28;20020;-83
2024/01/19 09:09:49;;;;;;;8.77;5.20;;;;;;;19.03;55.04;99692.44;5091423;28;20117;-82
2024/01/19 09:12:15;;;;;;;9.35;5.13;;;;;;;19.11;53.48;99688.66;5091543;28;20670;-81
2024/01/19 09:14:40;;;;;;;12.38;4.97;;;;;;;19.15;53.51;99695.41;5091294;28;20036;-82
2024/01/19 09:17:06;;;;;;;10.52;4.82;;;;;;;19.23;52.96;99692.53;5091211;28;20067;-81
2024/01/19 09:19:31;;;;;;;9.65;5.22;;;;;;;19.28;53.06;99700.94;5091179;28;20020;-82
2024/01/19 09:21:57;;;;;;;13.20;5.72;;;;;;;19.29;53.09;99688.16;5091334;28;20020;-81
2024/01/19 09:24:23;;;;;;;12.77;5.50;;;;;;;19.41;52.63;99705.63;5091501;28;20452;-81
2024/01/19 09:26:49;;;;;;;13.88;5.30;;;;;;;19.39;52.50;99670.38;5091758;28;20055;-81
2024/01/19 09:29:14;;;;;;;19.38;5.88;;;;;;;19.78;52.27;99702.41;5093045;28;20101;-82
2024/01/19 09:31:44;;;;;;;16.48;6.45;;;;;;;19.68;51.41;99669.22;5093348;28;20123;-81
2024/01/19 09:34:10;;;;;;;22.20;7.30;;;;;;;20.07;51.30;99698.44;5099653;28;20065;-84
2024/01/19 09:36:35;;;;;;;20.63;6.60;;;;;;;20.18;50.26;99703.28;5115468;28;20043;-82
2024/01/19 09:39:01;;;;;;;20.25;6.20;;;;;;;20.10;49.48;99700.75;5103478;28;20028;-82
2024/01/19 09:41:54;;;;;;;33.97;6.07;;;;;;;20.09;49.61;99663.56;5089646;28;20085;-81
2024/01/19 09:44:20;;;;;;;13.00;5.45;;;;;;;20.37;48.80;99683.34;5087976;28;20051;-81
2024/01/19 09:46:52;;;;;;;25.38;6.30;;;;;;;20.54;48.99;99690.09;5089421;28;20409;-81
2024/01/19 09:49:38;;;;;;;22.63;5.75;;;;;;;20.40;48.66;99647.41;5089543;28;20021;-81
2024/01/19 09:52:26;;;;;;;18.63;6.90;;;;;;;20.76;48.41;99684.38;5089214;28;20032;-82
2024/01/19 09:54:54;;;;;;;21.98;5.72;;;;;;;20.94;47.79;99677.19;5088703;28;20106;-81
2024/01/19 09:57:20;;;;;;;32.25;7.05;;;;;;;21.02;47.99;99678.81;5089627;28;20039;-84
2024/01/19 09:59:45;;;;;;;41.42;8.27;;;;;;;21.07;47.66;99654.41;5089176;28;20020;-82
2024/01/19 10:02:12;;;;;;;34.08;6.18;;;;;;;21.16;47.09;99639.47;5089282;28;20424;-82
2024/01/19 10:04:38;;;;;;;29.92;7.05;;;;;;;21.33;46.95;99687.16;5088879;28;20052;-83
2024/01/19 10:07:03;;;;;;;57.90;8.50;;;;;;;21.40;46.88;99687.97;5089165;28;20193;-81
2024/01/19 10:09:30;;;;;;;23.98;4.43;;;;;;;21.44;46.14;99683.72;5088944;28;20020;-81
2024/01/19 10:11:56;;;;;;;19.63;6.88;;;;;;;21.43;45.57;99687.53;5089262;28;20034;-82
2024/01/19 10:14:23;;;;;;;10.05;4.35;;;;;;;21.47;45.39;99682.44;5089629;28;20024;-83
2024/01/19 10:16:49;;;;;;;20.90;4.38;;;;;;;21.46;44.96;99684.38;5089646;28;20454;-80
2024/01/19 10:19:16;;;;;;;9.70;3.60;;;;;;;21.29;44.99;99685.91;5091968;28;20082;-81
2024/01/19 10:21:42;;;;;;;14.60;3.55;;;;;;;21.09;45.28;99675.06;5091315;28;20087;-83
2024/01/19 10:24:17;;;;;;;34.35;4.97;;;;;;;20.94;45.57;99679.06;5104404;28;20042;-83
2024/01/19 10:26:46;;;;;;;18.10;4.35;;;;;;;20.77;45.22;99677.84;5114998;28;20047;-82
2024/01/19 10:29:16;;;;;;;28.02;4.88;;;;;;;20.82;45.93;99683.53;5093712;28;20028;-82
2024/01/19 10:31:52;;;;;;;22.48;3.47;;;;;;;20.84;45.93;99681.41;5088925;28;20736;-83
2024/01/19 10:36:39;;;;;;;19.00;4.03;;;;;;;20.74;46.08;99665.44;5084985;27;20730;-82
2024/01/19 10:39:31;;;;;;;59.28;8.98;;;;;;;20.70;46.30;99663.38;5085264;28;20043;-82
2024/01/19 10:42:07;;;;;;;25.95;4.65;;;;;;;20.79;46.13;99684.78;5062463;28;20063;-81
2024/01/19 10:44:34;;;;;;;7.68;3.55;;;;;;;20.74;45.66;99673.63;5062497;28;20111;-81
2024/01/19 10:47:00;;;;;;;15.45;5.85;;;;;;;20.86;45.96;99684.75;5062548;28;20547;-82
2024/01/19 10:49:26;;;;;;;29.05;3.78;;;;;;;20.90;45.49;99691.47;5062280;28;20760;-82
2024/01/19 10:51:53;;;;;;;43.85;6.93;;;;;;;20.89;45.51;99695.25;5063643;28;20070;-80
2024/01/19 10:54:25;;;;;;;13.90;3.28;;;;;;;20.51;45.42;99646.78;5062249;28;20040;-80
2024/01/19 10:57:04;;;;;;;13.25;3.22;;;;;;;20.71;45.47;99675.94;5062127;28;20174;-82
2024/01/19 10:59:30;;;;;;;55.17;7.20;;;;;;;20.91;45.70;99699.47;5063387;28;20694;-81
2024/01/19 11:02:00;;;;;;;48.42;7.70;;;;;;;20.82;45.11;99672.59;5062808;28;20148;-80
2024/01/19 11:04:27;;;;;;;23.38;5.03;;;;;;;20.85;44.97;99666.69;5063646;28;20029;-82
2024/01/19 11:06:53;;;;;;;40.78;6.88;;;;;;;20.90;45.19;99670.44;5047864;28;20048;-81
2024/01/19 11:09:18;;;;;;;13.23;4.10;;;;;;;20.97;44.97;99692.31;5064374;28;20167;-80
2024/01/19 11:11:53;;;;;;;29.95;4.85;;;;;;;20.97;45.07;99692.31;5063725;28;20492;-81
2024/01/19 11:14:25;;;;;;;12.15;3.60;;;;;;;20.80;45.15;99674.66;5063227;28;20044;-82
2024/01/19 11:16:53;;;;;;;9.65;2.85;;;;;;;20.86;45.21;99679.28;5041828;28;20061;-80
2024/01/19 11:19:21;;;;;;;35.05;5.25;;;;;;;21.04;45.06;99683.00;5100500;28;20040;-83
2024/01/19 11:21:47;;;;;;;25.63;3.75;;;;;;;21.07;45.12;99689.94;5105322;28;20078;-82